createdAt,value
2018-01-29T00:01:46.863Z,102432.36
2018-01-29T00:04:14.602Z,102438.31
2018-01-29T00:06:43.863Z,102439.01
2018-01-29T00:09:11.710Z,102441.44
2018-01-29T00:11:39.436Z,102437.52
2018-01-29T00:14:07.241Z,102447.94
2018-01-29T00:16:35.571Z,102450.80
2018-01-29T00:19:03.271Z,102446.85
2018-01-29T00:21:31.014Z,102444.42
2018-01-29T00:23:58.745Z,102441.00
2018-01-29T00:26:26.467Z,102435.19
2018-01-29T00:28:54.207Z,102438.31
2018-01-29T00:31:22.192Z,102438.55
2018-01-29T00:33:49.888Z,102435.59
2018-01-29T00:36:17.604Z,102448.05
2018-01-29T00:38:45.783Z,102449.29
2018-01-29T00:41:13.551Z,102450.35
2018-01-29T00:43:41.412Z,102450.35
2018-01-29T00:46:09.353Z,102441.92
2018-01-29T00:48:37.183Z,102450.05
2018-01-29T00:51:04.929Z,102455.61
2018-01-29T00:53:32.644Z,102445.19
2018-01-29T00:56:00.706Z,102433.77
2018-01-29T00:58:28.513Z,102421.98
2018-01-29T01:00:56.317Z,102422.55
2018-01-29T01:03:24.335Z,102429.59
2018-01-29T01:05:52.193Z,102432.43
2018-01-29T01:08:20.091Z,102427.26
2018-01-29T01:10:47.984Z,102431.88
2018-01-29T01:13:15.734Z,102411.52
2018-01-29T01:15:43.456Z,102413.28
2018-01-29T01:18:11.352Z,102420.33
2018-01-29T01:20:39.046Z,102411.36
2018-01-29T01:23:06.824Z,102412.72
2018-01-29T01:25:34.644Z,102399.58
2018-01-29T01:28:02.714Z,102392.78
2018-01-29T01:30:30.492Z,102384.94
2018-01-29T01:32:58.674Z,102384.00
2018-01-29T01:35:27.169Z,102381.80
2018-01-29T01:37:55.067Z,102383.98
2018-01-29T01:40:22.996Z,102387.62
2018-01-29T01:42:50.769Z,102385.47
2018-01-29T01:45:18.826Z,102391.97
2018-01-29T01:47:46.604Z,102390.73
2018-01-29T01:50:14.393Z,102394.53
2018-01-29T01:52:42.325Z,102404.02
2018-01-29T01:55:10.024Z,102385.59
2018-01-29T01:57:37.753Z,102387.34
2018-01-29T02:00:05.687Z,102385.59
2018-01-29T02:02:33.835Z,102378.83
2018-01-29T02:05:01.547Z,102379.06
2018-01-29T02:07:29.257Z,102368.24
2018-01-29T02:09:57.399Z,102361.72
2018-01-29T02:12:25.222Z,102367.12
2018-01-29T02:14:53.002Z,102353.33
2018-01-29T02:17:20.858Z,102354.41
2018-01-29T02:19:48.656Z,102340.59
2018-01-29T02:22:16.569Z,102344.53
2018-01-29T02:24:44.333Z,102343.33
2018-01-29T02:27:12.453Z,102337.63
2018-01-29T02:29:40.339Z,102334.78
2018-01-29T02:32:08.119Z,102331.11
2018-01-29T02:34:35.869Z,102340.50
2018-01-29T02:37:03.703Z,102335.05
2018-01-29T02:39:31.788Z,102326.54
2018-01-29T02:41:59.482Z,102329.64
2018-01-29T02:44:27.232Z,102328.42
2018-01-29T02:46:55.008Z,102320.14
2018-01-29T02:49:22.826Z,102314.05
2018-01-29T02:51:50.568Z,102314.47
2018-01-29T02:54:18.344Z,102305.25
2018-01-29T02:56:46.086Z,102312.55
2018-01-29T02:59:13.827Z,102300.49
2018-01-29T03:01:41.538Z,102296.02
2018-01-29T03:04:09.321Z,102291.95
2018-01-29T03:06:37.040Z,102298.58
2018-01-29T03:09:05.267Z,102296.14
2018-01-29T03:11:32.985Z,102296.42
2018-01-29T03:14:00.768Z,102289.50
2018-01-29T03:16:28.470Z,102293.43
2018-01-29T03:18:56.190Z,102282.34
2018-01-29T03:21:24.220Z,102285.05
2018-01-29T03:23:52.385Z,102277.99
2018-01-29T03:26:20.086Z,102278.13
2018-01-29T03:28:47.881Z,102272.16
2018-01-29T03:31:15.658Z,102279.62
2018-01-29T03:33:43.425Z,102280.41
2018-01-29T03:36:11.133Z,102278.25
2018-01-29T03:38:38.960Z,102283.12
2018-01-29T03:41:06.657Z,102265.64
2018-01-29T03:43:34.484Z,102278.53
2018-01-29T03:46:02.578Z,102273.91
2018-01-29T03:48:30.354Z,102268.48
2018-01-29T03:50:58.125Z,102271.33
2018-01-29T03:53:25.909Z,102273.76
2018-01-29T03:55:53.663Z,102277.97
2018-01-29T03:58:21.731Z,102272.41
2018-01-29T04:00:49.530Z,102274.84
2018-01-29T04:03:17.251Z,102261.57
2018-01-29T04:05:45.093Z,102261.84
2018-01-29T04:08:12.804Z,102254.66
2018-01-29T04:10:40.568Z,102249.38
2018-01-29T04:13:09.105Z,102252.64
2018-01-29T04:15:36.818Z,102259.70
2018-01-29T04:18:04.644Z,102246.14
2018-01-29T04:20:32.468Z,102245.05
2018-01-29T04:23:00.185Z,102250.33
2018-01-29T04:25:27.896Z,102242.05
2018-01-29T04:27:55.626Z,102239.23
2018-01-29T04:30:23.333Z,102235.83
2018-01-29T04:32:51.107Z,102234.63
2018-01-29T04:35:18.856Z,102231.36
2018-01-29T04:37:46.565Z,102229.34
2018-01-29T04:40:14.626Z,102221.59
2018-01-29T04:42:42.763Z,102221.20
2018-01-29T04:45:10.600Z,102219.16
2018-01-29T04:47:38.344Z,102226.07
2018-01-29T04:50:06.084Z,102222.95
2018-01-29T04:52:33.914Z,102229.59
2018-01-29T04:55:02.627Z,102218.50
2018-01-29T04:57:30.438Z,102226.77
2018-01-29T04:59:58.189Z,102215.38
2018-01-29T05:02:25.987Z,102219.58
2018-01-29T05:04:53.764Z,102227.98
2018-01-29T05:07:21.477Z,102227.44
2018-01-29T05:09:49.256Z,102224.16
2018-01-29T05:12:17.032Z,102220.52
2018-01-29T05:14:44.795Z,102210.36
2018-01-29T05:17:12.476Z,102217.28
2018-01-29T05:19:41.029Z,102214.30
2018-01-29T05:22:08.797Z,102217.14
2018-01-29T05:24:36.512Z,102216.31
2018-01-29T05:27:05.368Z,102214.30
2018-01-29T05:29:33.155Z,102217.00
2018-01-29T05:32:00.993Z,102207.38
2018-01-29T05:34:28.831Z,102204.66
2018-01-29T05:40:07.259Z,102206.95
2018-01-29T05:42:35.123Z,102185.83
2018-01-29T05:45:02.882Z,102197.89
2018-01-29T05:47:30.661Z,102202.89
2018-01-29T05:49:58.385Z,102199.80
2018-01-29T05:52:26.216Z,102197.23
2018-01-29T05:54:53.925Z,102193.41
2018-01-29T05:57:22.057Z,102191.25
2018-01-29T05:59:49.885Z,102205.08
2018-01-29T06:02:17.549Z,102186.77
2018-01-29T06:04:45.844Z,102194.62
2018-01-29T06:07:13.719Z,102172.83
2018-01-29T06:09:41.377Z,102193.02
2018-01-29T06:12:09.197Z,102190.69
2018-01-29T06:14:36.915Z,102193.02
2018-01-29T06:17:04.684Z,102192.33
2018-01-29T06:19:32.397Z,102189.23
2018-01-29T06:22:00.179Z,102165.22
2018-01-29T06:24:29.004Z,102183.91
2018-01-29T06:26:56.711Z,102173.35
2018-01-29T06:29:24.407Z,102173.91
2018-01-29T06:31:52.362Z,102183.39
2018-01-29T06:34:20.106Z,102180.68
2018-01-29T06:36:47.774Z,102180.02
2018-01-29T06:39:15.461Z,102190.16
2018-01-29T06:41:43.220Z,102174.70
2018-01-29T06:44:11.071Z,102180.54
2018-01-29T06:46:39.054Z,102187.45
2018-01-29T06:49:06.744Z,102183.80
2018-01-29T06:51:34.383Z,102181.64
2018-01-29T06:54:02.102Z,102174.84
2018-01-29T06:56:30.618Z,102177.30
2018-01-29T06:58:58.514Z,102169.31
2018-01-29T07:01:26.318Z,102175.81
2018-01-29T07:03:53.978Z,102167.41
2018-01-29T07:06:22.841Z,102161.29
2018-01-29T07:08:50.576Z,102163.75
2018-01-29T07:11:18.438Z,102170.78
2018-01-29T07:13:46.096Z,102162.37
2018-01-29T07:16:14.277Z,102169.56
2018-01-29T07:18:42.248Z,102159.00
2018-01-29T07:21:09.878Z,102169.42
2018-01-29T07:23:37.558Z,102161.70
2018-01-29T07:26:05.139Z,102159.00
2018-01-29T07:28:32.812Z,102158.86
2018-01-29T07:31:00.846Z,102168.91
2018-01-29T07:33:28.565Z,102156.70
2018-01-29T07:35:56.185Z,102145.86
2018-01-29T07:38:23.822Z,102162.13
2018-01-29T07:40:51.820Z,102149.52
2018-01-29T07:43:19.436Z,102148.16
2018-01-29T07:45:47.086Z,102131.48
2018-01-29T07:48:14.732Z,102140.16
2018-01-29T07:50:42.745Z,102146.80
2018-01-29T07:53:10.348Z,102143.56
2018-01-29T07:55:38.200Z,102144.65
2018-01-29T07:58:06.164Z,102146.94
2018-01-29T08:00:34.531Z,102155.34
2018-01-29T08:03:02.185Z,102132.03
2018-01-29T08:05:30.074Z,102128.25
2018-01-29T08:07:57.705Z,102134.19
2018-01-29T08:10:25.315Z,102109.14
2018-01-29T08:12:53.785Z,102104.80
2018-01-29T08:15:21.415Z,102106.95
2018-01-29T08:17:49.097Z,102106.56
2018-01-29T08:20:16.858Z,102091.11
2018-01-29T08:22:44.846Z,102071.85
2018-01-29T08:25:12.568Z,102083.49
2018-01-29T08:27:40.360Z,102077.83
2018-01-29T08:30:08.039Z,102078.25
2018-01-29T08:32:35.729Z,102074.84
2018-01-29T08:35:03.398Z,102079.05
2018-01-29T08:37:31.184Z,102077.13
2018-01-29T08:39:58.885Z,102073.34
2018-01-29T08:42:26.563Z,102082.97
2018-01-29T08:44:54.333Z,102077.83
2018-01-29T08:47:22.386Z,102078.91
2018-01-29T08:49:50.637Z,102062.64
2018-01-29T08:52:18.334Z,102079.18
2018-01-29T08:54:46.159Z,102074.28
2018-01-29T08:57:13.943Z,102066.84
2018-01-29T08:59:41.681Z,102073.06
2018-01-29T09:02:09.346Z,102072.78
2018-01-29T09:04:37.099Z,102061.56
2018-01-29T09:07:04.805Z,102058.44
2018-01-29T09:09:32.804Z,102050.03
2018-01-29T09:12:00.517Z,102021.84
2018-01-29T09:14:28.168Z,102062.36
2018-01-29T09:16:55.861Z,102061.00
2018-01-29T09:19:23.510Z,102053.67
2018-01-29T09:21:51.242Z,102044.73
2018-01-29T09:24:19.822Z,102044.46
2018-01-29T09:26:47.503Z,102052.59
2018-01-29T09:29:15.195Z,102045.68
2018-01-29T09:31:42.946Z,102033.48
2018-01-29T09:34:10.596Z,102038.11
2018-01-29T09:36:38.272Z,102036.06
2018-01-29T09:39:06.281Z,102040.41
2018-01-29T09:41:33.959Z,102027.97
2018-01-29T09:44:01.636Z,102031.07
2018-01-29T09:46:29.360Z,102034.98
2018-01-29T09:48:57.548Z,102035.96
2018-01-29T09:51:25.828Z,102030.27
2018-01-29T09:53:53.464Z,102038.96
2018-01-29T09:56:21.090Z,102058.73
2018-01-29T09:58:49.102Z,102059.67
2018-01-29T10:01:17.066Z,102042.61
2018-01-29T10:03:44.688Z,102051.16
2018-01-29T10:06:13.073Z,102038.96
2018-01-29T10:08:41.076Z,102039.91
2018-01-29T10:11:08.827Z,102044.23
2018-01-29T10:13:36.616Z,102037.33
2018-01-29T10:16:04.316Z,102035.97
2018-01-29T10:18:31.960Z,102028.36
2018-01-29T10:20:59.976Z,102035.00
2018-01-29T10:23:27.944Z,102037.84
2018-01-29T10:25:55.625Z,102039.19
2018-01-29T10:28:23.363Z,102042.33
2018-01-29T10:30:51.004Z,102027.30
2018-01-29T10:33:18.655Z,102041.91
2018-01-29T10:35:46.363Z,102019.85
2018-01-29T10:38:14.040Z,102021.72
2018-01-29T10:40:41.913Z,102006.95
2018-01-29T10:43:09.614Z,102011.30
2018-01-29T10:45:37.291Z,102008.72
2018-01-29T10:48:05.028Z,102017.77
2018-01-29T10:50:32.612Z,102020.48
2018-01-29T10:53:00.533Z,102007.50
2018-01-29T10:55:28.237Z,102016.02
2018-01-29T10:57:55.865Z,102014.00
2018-01-29T11:00:23.538Z,102011.29
2018-01-29T11:02:51.125Z,101995.61
2018-01-29T11:05:18.757Z,101998.75
2018-01-29T11:07:46.427Z,101989.66
2018-01-29T11:10:14.156Z,102012.16
2018-01-29T11:12:42.191Z,101991.98
2018-01-29T11:15:09.815Z,101994.42
2018-01-29T11:17:37.883Z,101993.20
2018-01-29T11:20:05.843Z,101984.56
2018-01-29T11:22:33.498Z,101982.24
2018-01-29T11:25:01.218Z,101978.05
2018-01-29T11:27:28.876Z,101972.63
2018-01-29T11:29:56.541Z,101957.59
2018-01-29T11:32:24.231Z,101962.75
2018-01-29T11:34:52.346Z,101965.19
2018-01-29T11:37:20.040Z,101956.27
2018-01-29T11:39:47.722Z,101962.77
2018-01-29T11:42:15.844Z,101946.80
2018-01-29T11:44:43.554Z,101950.86
2018-01-29T11:47:11.288Z,101935.83
2018-01-29T11:49:39.146Z,101936.77
2018-01-29T11:52:06.823Z,101933.55
2018-01-29T11:54:34.465Z,101929.48
2018-01-29T11:57:02.238Z,101927.72
2018-01-29T11:59:29.961Z,101921.61
2018-01-29T12:01:57.595Z,101925.53
2018-01-29T12:04:25.320Z,101912.69
2018-01-29T12:06:52.961Z,101909.95
2018-01-29T12:09:21.084Z,101895.89
2018-01-29T12:11:48.730Z,101900.77
2018-01-29T12:14:16.883Z,101899.95
2018-01-29T12:16:44.684Z,101899.13
2018-01-29T12:19:15.742Z,101895.34
2018-01-29T12:21:40.138Z,101889.79
2018-01-29T12:24:07.809Z,101881.52
2018-01-29T12:26:35.515Z,101888.44
2018-01-29T12:29:03.208Z,101864.22
2018-01-29T12:31:31.253Z,101876.41
2018-01-29T12:33:58.983Z,101871.82
2018-01-29T12:36:26.632Z,101859.09
2018-01-29T12:38:54.311Z,101855.17
2018-01-29T12:41:28.156Z,101842.84
2018-01-29T12:43:56.504Z,101829.17
2018-01-29T12:46:24.234Z,101845.42
2018-01-29T12:48:51.901Z,101837.71
2018-01-29T12:51:19.561Z,101840.28
2018-01-29T12:53:47.543Z,101831.89
2018-01-29T12:56:15.343Z,101829.45
2018-01-29T12:58:43.044Z,101834.72
2018-01-29T13:01:10.744Z,101824.59
2018-01-29T13:03:38.491Z,101817.53
2018-01-29T13:06:06.184Z,101808.21
2018-01-29T13:08:33.919Z,101803.87
2018-01-29T13:11:01.682Z,101809.01
2018-01-29T13:13:29.475Z,101789.55
2018-01-29T13:15:57.199Z,101787.91
2018-01-29T13:18:24.948Z,101781.16
2018-01-29T13:20:52.659Z,101776.55
2018-01-29T13:23:20.754Z,101770.06
2018-01-29T13:25:48.485Z,101770.62
2018-01-29T13:28:16.240Z,101770.62
2018-01-29T13:30:43.989Z,101762.37
2018-01-29T13:33:11.769Z,101758.59
2018-01-29T13:35:39.627Z,101746.83
2018-01-29T13:38:07.332Z,101745.33
2018-01-29T13:40:35.241Z,101753.05
2018-01-29T13:43:02.973Z,101748.44
2018-01-29T13:45:30.625Z,101742.64
2018-01-29T13:47:58.340Z,101741.00
2018-01-29T13:50:26.105Z,101720.45
2018-01-29T13:52:54.162Z,101738.86
2018-01-29T13:55:21.871Z,101729.39
2018-01-29T13:57:49.604Z,101720.44
2018-01-29T14:00:17.643Z,101725.56
2018-01-29T14:02:45.424Z,101728.13
2018-01-29T14:05:13.780Z,101714.23
2018-01-29T14:07:42.863Z,101716.66
2018-01-29T14:10:12.788Z,101725.20
2018-01-29T14:12:40.579Z,101723.72
2018-01-29T14:15:08.364Z,101720.07
2018-01-29T14:17:37.022Z,101709.34
2018-01-29T14:20:04.806Z,101714.67
2018-01-29T14:22:35.380Z,101706.80
2018-01-29T14:25:03.108Z,101700.16
2018-01-29T14:27:30.895Z,101715.17
2018-01-29T14:29:58.595Z,101714.25
2018-01-29T14:32:26.449Z,101705.98
2018-01-29T14:34:54.182Z,101705.70
2018-01-29T14:37:21.854Z,101711.89
2018-01-29T14:39:49.958Z,101710.67
2018-01-29T14:42:18.031Z,101719.64
2018-01-29T14:44:45.769Z,101722.06
2018-01-29T14:47:14.304Z,101717.45
2018-01-29T14:49:41.981Z,101712.73
2018-01-29T14:52:09.658Z,101716.80
2018-01-29T14:54:37.394Z,101719.50
2018-01-29T14:57:05.162Z,101723.02
2018-01-29T14:59:32.884Z,101716.80
2018-01-29T15:02:00.687Z,101723.98
2018-01-29T15:04:28.436Z,101734.38
2018-01-29T15:06:56.172Z,101726.55
2018-01-29T15:09:23.887Z,101741.02
2018-01-29T15:11:51.984Z,101743.72
2018-01-29T15:14:19.717Z,101724.64
2018-01-29T15:16:47.454Z,101735.59
2018-01-29T15:19:15.216Z,101724.50
2018-01-29T15:21:42.923Z,101727.77
2018-01-29T15:24:10.650Z,101730.20
2018-01-29T15:26:38.397Z,101722.34
2018-01-29T15:29:06.150Z,101719.37
2018-01-29T15:31:34.241Z,101714.23
2018-01-29T15:34:02.515Z,101713.27
2018-01-29T15:36:30.300Z,101703.29
2018-01-29T15:38:57.999Z,101695.33
2018-01-29T15:41:25.745Z,101698.44
2018-01-29T15:43:53.690Z,101689.93
2018-01-29T15:46:21.457Z,101699.68
2018-01-29T15:48:49.219Z,101685.50
2018-01-29T15:51:16.966Z,101692.13
2018-01-29T15:53:44.789Z,101685.23
2018-01-29T15:56:13.144Z,101687.94
2018-01-29T15:58:40.890Z,101695.63
2018-01-29T16:01:08.651Z,101691.86
2018-01-29T16:03:36.843Z,101705.09
2018-01-29T16:06:04.767Z,101707.15
2018-01-29T16:08:32.545Z,101710.64
2018-01-29T16:11:00.922Z,101711.06
2018-01-29T16:13:28.608Z,101715.13
2018-01-29T16:15:56.780Z,101715.27
2018-01-29T16:18:24.560Z,101731.59
2018-01-29T16:20:52.312Z,101739.56
2018-01-29T16:23:21.083Z,101743.62
2018-01-29T16:25:48.785Z,101749.87
2018-01-29T16:28:16.559Z,101764.06
2018-01-29T16:30:44.715Z,101761.63
2018-01-29T16:33:12.453Z,101777.73
2018-01-29T16:35:40.211Z,101779.09
2018-01-29T16:38:07.959Z,101790.47
2018-01-29T16:40:35.698Z,101797.38
2018-01-29T16:43:03.414Z,101801.05
2018-01-29T16:45:31.121Z,101799.56
2018-01-29T16:47:59.469Z,101810.77
2018-01-29T16:50:27.197Z,101808.62
2018-01-29T16:52:55.325Z,101817.15
2018-01-29T16:55:23.485Z,101816.73
2018-01-29T16:57:51.222Z,101837.29
2018-01-29T17:00:19.316Z,101837.16
2018-01-29T17:02:47.085Z,101841.34
2018-01-29T17:05:14.895Z,101849.34
2018-01-29T17:07:42.979Z,101847.02
2018-01-29T17:10:10.986Z,101849.19
2018-01-29T17:12:38.929Z,101862.83
2018-01-29T17:15:06.777Z,101866.35
2018-01-29T17:17:34.523Z,101867.13
2018-01-29T17:20:03.016Z,101880.36
2018-01-29T17:22:30.815Z,101882.79
2018-01-29T17:24:58.513Z,101898.06
2018-01-29T17:27:26.135Z,101888.83
2018-01-29T17:29:53.959Z,101910.28
2018-01-29T17:32:21.680Z,101905.36
2018-01-29T17:34:51.023Z,101903.08
2018-01-29T17:37:20.018Z,101916.97
2018-01-29T17:39:47.758Z,101911.08
2018-01-29T17:42:16.027Z,101907.56
2018-01-29T17:44:51.054Z,101927.80
2018-01-29T17:47:18.810Z,101930.77
2018-01-29T17:49:46.632Z,101934.12
2018-01-29T17:52:14.362Z,101934.81
2018-01-29T17:54:42.599Z,101938.44
2018-01-29T17:57:10.307Z,101933.59
2018-01-29T17:59:38.051Z,101941.92
2018-01-29T18:02:05.895Z,101955.68
2018-01-29T18:04:33.615Z,101959.86
2018-01-29T18:07:01.323Z,101965.80
2018-01-29T18:09:29.442Z,101975.89
2018-01-29T18:11:57.121Z,101982.75
2018-01-29T18:14:24.859Z,101977.62
2018-01-29T18:16:52.605Z,101987.22
2018-01-29T18:19:20.286Z,102003.94
2018-01-29T18:21:47.952Z,102020.41
2018-01-29T18:24:15.935Z,102022.02
2018-01-29T18:26:44.184Z,102024.70
2018-01-29T18:29:11.911Z,102032.81
2018-01-29T18:31:39.650Z,102028.38
2018-01-29T18:34:07.424Z,102031.20
2018-01-29T18:36:35.172Z,102054.02
2018-01-29T18:39:02.994Z,102044.70
2018-01-29T18:41:30.705Z,102044.70
2018-01-29T18:43:59.044Z,102048.20
2018-01-29T18:46:26.779Z,102055.61
2018-01-29T18:48:54.485Z,102057.87
2018-01-29T18:51:22.529Z,102067.05
2018-01-29T18:53:50.207Z,102074.08
2018-01-29T18:56:17.852Z,102075.70
2018-01-29T18:58:45.543Z,102096.30
2018-01-29T19:01:13.221Z,102104.47
2018-01-29T19:03:40.900Z,102103.92
2018-01-29T19:06:08.737Z,102104.47
2018-01-29T19:08:36.583Z,102117.27
2018-01-29T19:11:04.672Z,102113.63
2018-01-29T19:13:32.749Z,102125.07
2018-01-29T19:16:00.482Z,102124.66
2018-01-29T19:18:28.185Z,102128.58
2018-01-29T19:20:55.966Z,102140.83
2018-01-29T19:23:23.633Z,102146.22
2018-01-29T19:25:51.806Z,102138.77
2018-01-29T19:28:19.549Z,102154.30
2018-01-29T19:30:47.306Z,102157.73
2018-01-29T19:33:15.027Z,102165.42
2018-01-29T19:35:42.741Z,102176.01
2018-01-29T19:38:10.516Z,102182.63
2018-01-29T19:40:38.253Z,102186.52
2018-01-29T19:43:05.937Z,102182.83
2018-01-29T19:45:34.114Z,102176.81
2018-01-29T19:48:01.855Z,102187.45
2018-01-29T19:50:29.617Z,102197.25
2018-01-29T19:52:57.367Z,102201.42
2018-01-29T19:55:25.007Z,102215.56
2018-01-29T19:57:52.717Z,102220.41
2018-01-29T20:00:20.428Z,102225.88
2018-01-29T20:02:48.238Z,102227.06
2018-01-29T20:05:15.895Z,102235.51
2018-01-29T20:07:43.590Z,102231.30
2018-01-29T20:10:11.371Z,102224.11
2018-01-29T20:12:39.114Z,102220.83
2018-01-29T20:15:06.796Z,102224.23
2018-01-29T20:17:34.540Z,102241.25
2018-01-29T20:20:02.532Z,102255.22
2018-01-29T20:22:30.155Z,102253.83
2018-01-29T20:24:57.802Z,102261.80
2018-01-29T20:27:25.485Z,102263.11
2018-01-29T20:29:53.644Z,102268.02
2018-01-29T20:32:21.339Z,102260.64
2018-01-29T20:34:49.579Z,102269.78
2018-01-29T20:37:17.252Z,102267.63
2018-01-29T20:39:44.964Z,102265.73
2018-01-29T20:42:12.750Z,102263.94
2018-01-29T20:44:40.426Z,102276.23
2018-01-29T20:47:08.148Z,102274.59
2018-01-29T20:49:35.825Z,102282.97
2018-01-29T20:52:03.495Z,102299.16
2018-01-29T20:54:31.329Z,102304.55
2018-01-29T20:56:59.015Z,102304.55
2018-01-29T20:59:26.776Z,102311.58
2018-01-29T21:01:54.480Z,102306.44
2018-01-29T21:04:22.174Z,102309.47
2018-01-29T21:06:49.890Z,102315.11
2018-01-29T21:09:17.645Z,102325.57
2018-01-29T21:11:45.392Z,102321.62
2018-01-29T21:14:13.056Z,102330.80
2018-01-29T21:16:40.822Z,102351.53
2018-01-29T21:19:08.526Z,102354.06
2018-01-29T21:21:36.179Z,102351.58
2018-01-29T21:24:03.888Z,102345.30
2018-01-29T21:26:31.594Z,102345.76
2018-01-29T21:28:59.358Z,102358.94
2018-01-29T21:31:27.074Z,102369.34
2018-01-29T21:33:54.799Z,102362.94
2018-01-29T21:36:22.513Z,102363.39
2018-01-29T21:38:50.223Z,102367.02
2018-01-29T21:41:18.024Z,102371.33
2018-01-29T21:43:45.771Z,102371.41
2018-01-29T21:46:13.797Z,102370.81
2018-01-29T21:48:42.022Z,102380.19
2018-01-29T21:51:09.726Z,102385.48
2018-01-29T21:53:37.955Z,102401.77
2018-01-29T21:56:05.691Z,102405.22
2018-01-29T21:58:33.374Z,102398.48
2018-01-29T22:01:01.060Z,102413.27
2018-01-29T22:03:28.836Z,102411.24
2018-01-29T22:05:56.674Z,102414.81
2018-01-29T22:08:24.414Z,102422.77
2018-01-29T22:10:52.203Z,102415.60
2018-01-29T22:13:19.918Z,102413.95
2018-01-29T22:15:47.747Z,102420.58
2018-01-29T22:18:15.530Z,102429.81
2018-01-29T22:20:43.243Z,102428.37
2018-01-29T22:23:11.507Z,102433.44
2018-01-29T22:25:39.227Z,102438.28
2018-01-29T22:28:06.884Z,102435.06
2018-01-29T22:30:34.575Z,102439.89
2018-01-29T22:33:02.291Z,102447.73
2018-01-29T22:35:30.021Z,102444.73
2018-01-29T22:37:57.783Z,102439.84
2018-01-29T22:40:25.532Z,102447.33
2018-01-29T22:42:53.351Z,102462.42
2018-01-29T22:45:21.031Z,102462.42
2018-01-29T22:47:48.742Z,102468.41
2018-01-29T22:50:16.742Z,102465.37
2018-01-29T22:52:44.453Z,102474.31
2018-01-29T22:55:12.201Z,102484.52
2018-01-29T22:57:39.899Z,102489.16
2018-01-29T23:00:07.573Z,102493.64
2018-01-29T23:02:37.191Z,102500.43
2018-01-29T23:05:05.026Z,102509.97
2018-01-29T23:07:32.729Z,102505.69
2018-01-29T23:10:00.420Z,102516.81
2018-01-29T23:12:28.092Z,102521.56
2018-01-29T23:14:56.208Z,102525.30
2018-01-29T23:17:24.025Z,102531.96
2018-01-29T23:19:52.323Z,102541.55
2018-01-29T23:22:20.241Z,102547.56
2018-01-29T23:24:48.008Z,102556.10
2018-01-29T23:27:15.677Z,102559.80
2018-01-29T23:29:43.373Z,102575.70
2018-01-29T23:32:11.409Z,102579.84
2018-01-29T23:34:39.246Z,102577.84
2018-01-29T23:37:06.998Z,102582.45
2018-01-29T23:39:34.950Z,102582.39
2018-01-29T23:42:02.871Z,102584.64
2018-01-29T23:44:30.651Z,102583.22
2018-01-29T23:46:58.456Z,102586.95
2018-01-29T23:49:26.272Z,102599.59
2018-01-29T23:51:53.973Z,102600.75
2018-01-29T23:54:21.691Z,102609.53
2018-01-29T23:56:49.414Z,102607.89
2018-01-29T23:59:17.067Z,102619.91
